sensor_id;sensor_type;location;lat;lon;timestamp;P1;durP1;ratioP1;P2;durP2;ratioP2
56429;SDS011;42332;52.136;20.666;2024-01-30T00:01:11;27.88;;;10.35;;
56429;SDS011;42332;52.136;20.666;2024-01-30T00:03:36;31.27;;;11.35;;
56429;SDS011;42332;52.136;20.666;2024-01-30T00:06:05;29.35;;;11.70;;
56429;SDS011;42332;52.136;20.666;2024-01-30T00:08:30;21.85;;;8.65;;
56429;SDS011;42332;52.136;20.666;2024-01-30T00:10:55;27.55;;;9.93;;
56429;SDS011;42332;52.136;20.666;2024-01-30T00:13:21;31.70;;;10.80;;
56429;SDS011;42332;52.136;20.666;2024-01-30T00:15:46;25.70;;;9.00;;
56429;SDS011;42332;52.136;20.666;2024-01-30T00:18:11;23.85;;;9.85;;
56429;SDS011;42332;52.136;20.666;2024-01-30T00:20:37;20.23;;;8.95;;
56429;SDS011;42332;52.136;20.666;2024-01-30T00:23:03;27.95;;;9.55;;
56429;SDS011;42332;52.136;20.666;2024-01-30T00:25:28;21.38;;;7.93;;
56429;SDS011;42332;52.136;20.666;2024-01-30T00:27:53;22.38;;;8.70;;
56429;SDS011;42332;52.136;20.666;2024-01-30T00:30:20;19.50;;;8.38;;
56429;SDS011;42332;52.136;20.666;2024-01-30T00:32:45;23.98;;;9.18;;
56429;SDS011;42332;52.136;20.666;2024-01-30T00:35:11;21.08;;;9.23;;
56429;SDS011;42332;52.136;20.666;2024-01-30T00:37:36;24.85;;;8.95;;
56429;SDS011;42332;52.136;20.666;2024-01-30T00:40:01;25.50;;;9.55;;
56429;SDS011;42332;52.136;20.666;2024-01-30T00:42:27;20.63;;;7.00;;
56429;SDS011;42332;52.136;20.666;2024-01-30T00:44:52;20.30;;;7.43;;
56429;SDS011;42332;52.136;20.666;2024-01-30T00:47:18;23.80;;;8.32;;
56429;SDS011;42332;52.136;20.666;2024-01-30T00:49:43;27.23;;;9.50;;
56429;SDS011;42332;52.136;20.666;2024-01-30T00:52:08;22.23;;;8.88;;
56429;SDS011;42332;52.136;20.666;2024-01-30T00:54:34;15.15;;;6.82;;
56429;SDS011;42332;52.136;20.666;2024-01-30T00:56:59;16.38;;;8.02;;
56429;SDS011;42332;52.136;20.666;2024-01-30T00:59:24;18.85;;;6.72;;
56429;SDS011;42332;52.136;20.666;2024-01-30T01:01:50;13.75;;;6.88;;
56429;SDS011;42332;52.136;20.666;2024-01-30T01:04:15;18.23;;;7.57;;
56429;SDS011;42332;52.136;20.666;2024-01-30T01:06:41;21.63;;;8.73;;
56429;SDS011;42332;52.136;20.666;2024-01-30T01:09:10;26.63;;;9.23;;
56429;SDS011;42332;52.136;20.666;2024-01-30T01:11:36;25.08;;;8.82;;
56429;SDS011;42332;52.136;20.666;2024-01-30T01:14:02;27.05;;;10.63;;
56429;SDS011;42332;52.136;20.666;2024-01-30T01:16:28;19.58;;;8.20;;
56429;SDS011;42332;52.136;20.666;2024-01-30T01:18:53;21.42;;;8.80;;
56429;SDS011;42332;52.136;20.666;2024-01-30T01:21:18;30.83;;;10.00;;
56429;SDS011;42332;52.136;20.666;2024-01-30T01:23:44;20.25;;;7.53;;
56429;SDS011;42332;52.136;20.666;2024-01-30T01:26:09;26.42;;;9.10;;
56429;SDS011;42332;52.136;20.666;2024-01-30T01:28:34;18.98;;;7.95;;
56429;SDS011;42332;52.136;20.666;2024-01-30T01:31:00;22.73;;;8.10;;
56429;SDS011;42332;52.136;20.666;2024-01-30T01:33:30;29.67;;;8.90;;
56429;SDS011;42332;52.136;20.666;2024-01-30T01:35:59;26.67;;;9.73;;
56429;SDS011;42332;52.136;20.666;2024-01-30T01:38:24;23.65;;;8.30;;
56429;SDS011;42332;52.136;20.666;2024-01-30T01:40:50;21.02;;;7.80;;
56429;SDS011;42332;52.136;20.666;2024-01-30T01:43:16;24.17;;;9.10;;
56429;SDS011;42332;52.136;20.666;2024-01-30T01:45:41;21.67;;;8.95;;
56429;SDS011;42332;52.136;20.666;2024-01-30T01:48:07;31.52;;;9.75;;
56429;SDS011;42332;52.136;20.666;2024-01-30T01:50:33;22.63;;;8.80;;
56429;SDS011;42332;52.136;20.666;2024-01-30T01:52:58;22.38;;;9.15;;
56429;SDS011;42332;52.136;20.666;2024-01-30T01:55:24;20.90;;;8.68;;
56429;SDS011;42332;52.136;20.666;2024-01-30T01:57:52;27.85;;;8.35;;
56429;SDS011;42332;52.136;20.666;2024-01-30T02:00:18;27.88;;;7.80;;
56429;SDS011;42332;52.136;20.666;2024-01-30T02:02:44;22.75;;;7.93;;
56429;SDS011;42332;52.136;20.666;2024-01-30T02:05:10;26.00;;;9.18;;
56429;SDS011;42332;52.136;20.666;2024-01-30T02:07:36;30.38;;;9.20;;
56429;SDS011;42332;52.136;20.666;2024-01-30T02:10:02;35.40;;;9.75;;
56429;SDS011;42332;52.136;20.666;2024-01-30T02:12:28;30.58;;;9.23;;
56429;SDS011;42332;52.136;20.666;2024-01-30T02:14:54;34.08;;;10.48;;
56429;SDS011;42332;52.136;20.666;2024-01-30T02:17:20;30.77;;;10.80;;
56429;SDS011;42332;52.136;20.666;2024-01-30T02:19:45;28.02;;;10.70;;
56429;SDS011;42332;52.136;20.666;2024-01-30T02:22:11;21.95;;;10.10;;
56429;SDS011;42332;52.136;20.666;2024-01-30T02:24:36;19.77;;;8.30;;
56429;SDS011;42332;52.136;20.666;2024-01-30T02:27:02;18.73;;;8.48;;
56429;SDS011;42332;52.136;20.666;2024-01-30T02:29:27;22.25;;;9.07;;
56429;SDS011;42332;52.136;20.666;2024-01-30T02:31:53;24.80;;;8.18;;
56429;SDS011;42332;52.136;20.666;2024-01-30T02:34:18;29.20;;;9.38;;
56429;SDS011;42332;52.136;20.666;2024-01-30T02:36:44;27.13;;;8.98;;
56429;SDS011;42332;52.136;20.666;2024-01-30T02:39:09;20.35;;;7.80;;
56429;SDS011;42332;52.136;20.666;2024-01-30T02:41:35;23.20;;;9.18;;
56429;SDS011;42332;52.136;20.666;2024-01-30T02:44:01;30.45;;;9.15;;
56429;SDS011;42332;52.136;20.666;2024-01-30T02:46:26;21.85;;;10.40;;
56429;SDS011;42332;52.136;20.666;2024-01-30T02:48:52;21.83;;;8.98;;
56429;SDS011;42332;52.136;20.666;2024-01-30T02:51:17;25.85;;;10.60;;
56429;SDS011;42332;52.136;20.666;2024-01-30T02:53:42;24.20;;;10.73;;
56429;SDS011;42332;52.136;20.666;2024-01-30T02:56:08;29.25;;;10.25;;
56429;SDS011;42332;52.136;20.666;2024-01-30T02:58:35;17.20;;;9.35;;
56429;SDS011;42332;52.136;20.666;2024-01-30T03:01:01;24.65;;;8.77;;
56429;SDS011;42332;52.136;20.666;2024-01-30T03:03:26;23.02;;;10.38;;
56429;SDS011;42332;52.136;20.666;2024-01-30T03:05:52;24.50;;;8.60;;
56429;SDS011;42332;52.136;20.666;2024-01-30T03:08:17;24.20;;;8.13;;
56429;SDS011;42332;52.136;20.666;2024-01-30T03:10:42;26.02;;;9.10;;
56429;SDS011;42332;52.136;20.666;2024-01-30T03:13:08;18.40;;;7.00;;
56429;SDS011;42332;52.136;20.666;2024-01-30T03:15:33;22.77;;;8.98;;
56429;SDS011;42332;52.136;20.666;2024-01-30T03:17:58;22.75;;;8.93;;
56429;SDS011;42332;52.136;20.666;2024-01-30T03:20:23;16.77;;;7.30;;
56429;SDS011;42332;52.136;20.666;2024-01-30T03:22:49;29.30;;;10.45;;
56429;SDS011;42332;52.136;20.666;2024-01-30T03:25:14;17.90;;;7.43;;
56429;SDS011;42332;52.136;20.666;2024-01-30T03:27:40;18.92;;;8.30;;
56429;SDS011;42332;52.136;20.666;2024-01-30T03:30:05;23.20;;;8.50;;
56429;SDS011;42332;52.136;20.666;2024-01-30T03:32:31;30.27;;;9.40;;
56429;SDS011;42332;52.136;20.666;2024-01-30T03:34:56;19.48;;;8.35;;
56429;SDS011;42332;52.136;20.666;2024-01-30T03:37:23;28.20;;;9.25;;
56429;SDS011;42332;52.136;20.666;2024-01-30T03:39:48;20.42;;;8.07;;
56429;SDS011;42332;52.136;20.666;2024-01-30T03:42:14;21.17;;;8.90;;
56429;SDS011;42332;52.136;20.666;2024-01-30T03:44:39;22.30;;;8.85;;
56429;SDS011;42332;52.136;20.666;2024-01-30T03:47:05;25.90;;;9.20;;
56429;SDS011;42332;52.136;20.666;2024-01-30T03:49:30;23.63;;;9.48;;
56429;SDS011;42332;52.136;20.666;2024-01-30T03:51:55;17.02;;;7.80;;
56429;SDS011;42332;52.136;20.666;2024-01-30T03:54:20;29.15;;;9.05;;
56429;SDS011;42332;52.136;20.666;2024-01-30T03:56:46;28.70;;;8.63;;
56429;SDS011;42332;52.136;20.666;2024-01-30T03:59:11;30.38;;;9.45;;
56429;SDS011;42332;52.136;20.666;2024-01-30T04:01:37;20.15;;;8.25;;
56429;SDS011;42332;52.136;20.666;2024-01-30T04:04:02;24.25;;;9.20;;
56429;SDS011;42332;52.136;20.666;2024-01-30T04:06:27;17.50;;;7.43;;
56429;SDS011;42332;52.136;20.666;2024-01-30T04:08:53;18.45;;;8.27;;
56429;SDS011;42332;52.136;20.666;2024-01-30T04:11:18;20.02;;;8.48;;
56429;SDS011;42332;52.136;20.666;2024-01-30T04:13:44;19.10;;;8.25;;
56429;SDS011;42332;52.136;20.666;2024-01-30T04:16:19;21.92;;;9.13;;
56429;SDS011;42332;52.136;20.666;2024-01-30T04:18:47;22.63;;;9.40;;
56429;SDS011;42332;52.136;20.666;2024-01-30T04:21:12;19.10;;;8.63;;
56429;SDS011;42332;52.136;20.666;2024-01-30T04:23:39;26.00;;;7.97;;
56429;SDS011;42332;52.136;20.666;2024-01-30T04:26:06;22.70;;;9.07;;
56429;SDS011;42332;52.136;20.666;2024-01-30T04:28:32;24.20;;;8.35;;
56429;SDS011;42332;52.136;20.666;2024-01-30T04:30:57;27.13;;;9.48;;
56429;SDS011;42332;52.136;20.666;2024-01-30T04:33:22;30.70;;;9.90;;
56429;SDS011;42332;52.136;20.666;2024-01-30T04:35:48;26.30;;;9.18;;
56429;SDS011;42332;52.136;20.666;2024-01-30T04:38:13;23.15;;;8.50;;
56429;SDS011;42332;52.136;20.666;2024-01-30T04:40:39;21.75;;;8.02;;
56429;SDS011;42332;52.136;20.666;2024-01-30T04:43:05;17.63;;;8.20;;
56429;SDS011;42332;52.136;20.666;2024-01-30T04:45:30;34.10;;;8.77;;
56429;SDS011;42332;52.136;20.666;2024-01-30T04:47:55;21.15;;;6.80;;
56429;SDS011;42332;52.136;20.666;2024-01-30T04:50:21;22.08;;;8.50;;
56429;SDS011;42332;52.136;20.666;2024-01-30T04:52:46;15.57;;;6.97;;
56429;SDS011;42332;52.136;20.666;2024-01-30T04:55:11;27.10;;;8.70;;
56429;SDS011;42332;52.136;20.666;2024-01-30T04:57:37;21.83;;;8.27;;
56429;SDS011;42332;52.136;20.666;2024-01-30T05:00:02;22.80;;;7.63;;
56429;SDS011;42332;52.136;20.666;2024-01-30T05:02:28;19.95;;;7.88;;
56429;SDS011;42332;52.136;20.666;2024-01-30T05:04:53;21.52;;;7.85;;
56429;SDS011;42332;52.136;20.666;2024-01-30T05:07:19;18.02;;;8.13;;
56429;SDS011;42332;52.136;20.666;2024-01-30T05:09:44;19.73;;;8.48;;
56429;SDS011;42332;52.136;20.666;2024-01-30T05:12:09;20.88;;;7.38;;
56429;SDS011;42332;52.136;20.666;2024-01-30T05:14:35;26.55;;;8.10;;
56429;SDS011;42332;52.136;20.666;2024-01-30T05:17:00;23.15;;;9.90;;
56429;SDS011;42332;52.136;20.666;2024-01-30T05:19:25;21.02;;;8.63;;
56429;SDS011;42332;52.136;20.666;2024-01-30T05:21:51;25.95;;;8.00;;
56429;SDS011;42332;52.136;20.666;2024-01-30T05:24:16;20.50;;;7.30;;
56429;SDS011;42332;52.136;20.666;2024-01-30T05:26:41;23.83;;;8.23;;
56429;SDS011;42332;52.136;20.666;2024-01-30T05:29:07;29.90;;;9.10;;
56429;SDS011;42332;52.136;20.666;2024-01-30T05:31:33;20.45;;;7.50;;
56429;SDS011;42332;52.136;20.666;2024-01-30T05:33:59;25.42;;;8.93;;
56429;SDS011;42332;52.136;20.666;2024-01-30T05:36:25;16.52;;;7.05;;
56429;SDS011;42332;52.136;20.666;2024-01-30T05:38:50;17.20;;;7.07;;
56429;SDS011;42332;52.136;20.666;2024-01-30T05:41:15;24.67;;;9.35;;
56429;SDS011;42332;52.136;20.666;2024-01-30T05:43:41;22.52;;;9.15;;
56429;SDS011;42332;52.136;20.666;2024-01-30T05:46:06;30.50;;;7.97;;
56429;SDS011;42332;52.136;20.666;2024-01-30T05:48:31;16.33;;;7.63;;
56429;SDS011;42332;52.136;20.666;2024-01-30T05:50:57;19.67;;;8.82;;
56429;SDS011;42332;52.136;20.666;2024-01-30T05:53:22;23.00;;;7.95;;
56429;SDS011;42332;52.136;20.666;2024-01-30T05:55:47;36.42;;;9.18;;
56429;SDS011;42332;52.136;20.666;2024-01-30T05:58:13;26.65;;;9.57;;
56429;SDS011;42332;52.136;20.666;2024-01-30T06:00:38;31.88;;;10.32;;
56429;SDS011;42332;52.136;20.666;2024-01-30T06:03:03;24.45;;;8.23;;
56429;SDS011;42332;52.136;20.666;2024-01-30T06:05:29;33.88;;;11.27;;
56429;SDS011;42332;52.136;20.666;2024-01-30T06:07:54;44.08;;;12.68;;
56429;SDS011;42332;52.136;20.666;2024-01-30T06:10:19;36.88;;;11.63;;
56429;SDS011;42332;52.136;20.666;2024-01-30T06:12:45;36.83;;;13.88;;
56429;SDS011;42332;52.136;20.666;2024-01-30T06:15:10;53.20;;;24.48;;
56429;SDS011;42332;52.136;20.666;2024-01-30T06:17:37;104.55;;;44.78;;
56429;SDS011;42332;52.136;20.666;2024-01-30T06:20:03;115.78;;;55.53;;
56429;SDS011;42332;52.136;20.666;2024-01-30T06:22:29;121.20;;;56.50;;
56429;SDS011;42332;52.136;20.666;2024-01-30T06:24:54;105.57;;;47.40;;
56429;SDS011;42332;52.136;20.666;2024-01-30T06:27:19;48.25;;;27.58;;
56429;SDS011;42332;52.136;20.666;2024-01-30T06:29:44;46.67;;;17.98;;
56429;SDS011;42332;52.136;20.666;2024-01-30T06:32:10;40.85;;;17.98;;
56429;SDS011;42332;52.136;20.666;2024-01-30T06:34:35;23.98;;;12.55;;
56429;SDS011;42332;52.136;20.666;2024-01-30T06:37:01;23.50;;;11.45;;
56429;SDS011;42332;52.136;20.666;2024-01-30T06:39:26;24.67;;;12.65;;
56429;SDS011;42332;52.136;20.666;2024-01-30T06:41:52;22.90;;;8.82;;
56429;SDS011;42332;52.136;20.666;2024-01-30T06:44:17;19.92;;;8.80;;
56429;SDS011;42332;52.136;20.666;2024-01-30T06:46:42;22.80;;;8.05;;
56429;SDS011;42332;52.136;20.666;2024-01-30T06:49:08;19.42;;;7.80;;
56429;SDS011;42332;52.136;20.666;2024-01-30T06:51:33;24.13;;;8.43;;
56429;SDS011;42332;52.136;20.666;2024-01-30T06:53:58;20.27;;;8.27;;
56429;SDS011;42332;52.136;20.666;2024-01-30T06:56:24;24.25;;;8.70;;
56429;SDS011;42332;52.136;20.666;2024-01-30T06:58:50;24.25;;;8.95;;
56429;SDS011;42332;52.136;20.666;2024-01-30T07:01:15;21.02;;;8.57;;
56429;SDS011;42332;52.136;20.666;2024-01-30T07:03:41;19.92;;;8.70;;
56429;SDS011;42332;52.136;20.666;2024-01-30T07:06:07;19.05;;;8.27;;
56429;SDS011;42332;52.136;20.666;2024-01-30T07:08:32;29.98;;;7.78;;
56429;SDS011;42332;52.136;20.666;2024-01-30T07:10:57;19.63;;;8.15;;
56429;SDS011;42332;52.136;20.666;2024-01-30T07:13:23;21.02;;;8.00;;
56429;SDS011;42332;52.136;20.666;2024-01-30T07:15:48;23.23;;;8.90;;
56429;SDS011;42332;52.136;20.666;2024-01-30T07:18:13;19.15;;;8.30;;
56429;SDS011;42332;52.136;20.666;2024-01-30T07:20:39;16.23;;;7.30;;
56429;SDS011;42332;52.136;20.666;2024-01-30T07:23:11;20.95;;;6.43;;
56429;SDS011;42332;52.136;20.666;2024-01-30T07:25:38;21.98;;;6.70;;
56429;SDS011;42332;52.136;20.666;2024-01-30T07:28:07;21.17;;;7.05;;
56429;SDS011;42332;52.136;20.666;2024-01-30T07:30:37;16.85;;;6.95;;
56429;SDS011;42332;52.136;20.666;2024-01-30T07:33:02;18.08;;;7.82;;
56429;SDS011;42332;52.136;20.666;2024-01-30T07:35:28;19.50;;;6.65;;
56429;SDS011;42332;52.136;20.666;2024-01-30T07:37:53;18.52;;;7.63;;
56429;SDS011;42332;52.136;20.666;2024-01-30T07:40:18;21.20;;;7.18;;
56429;SDS011;42332;52.136;20.666;2024-01-30T07:42:44;23.33;;;7.22;;
56429;SDS011;42332;52.136;20.666;2024-01-30T07:45:09;13.77;;;6.63;;
56429;SDS011;42332;52.136;20.666;2024-01-30T07:47:35;20.90;;;6.18;;
56429;SDS011;42332;52.136;20.666;2024-01-30T07:50:00;19.95;;;6.07;;
56429;SDS011;42332;52.136;20.666;2024-01-30T07:52:25;15.18;;;6.40;;
56429;SDS011;42332;52.136;20.666;2024-01-30T07:54:51;18.10;;;6.25;;
56429;SDS011;42332;52.136;20.666;2024-01-30T07:57:16;14.85;;;6.25;;
56429;SDS011;42332;52.136;20.666;2024-01-30T07:59:43;16.15;;;6.55;;
56429;SDS011;42332;52.136;20.666;2024-01-30T08:02:14;16.42;;;6.63;;
56429;SDS011;42332;52.136;20.666;2024-01-30T08:04:39;34.67;;;8.70;;
56429;SDS011;42332;52.136;20.666;2024-01-30T08:07:05;25.42;;;8.45;;
56429;SDS011;42332;52.136;20.666;2024-01-30T08:09:30;16.83;;;6.50;;
56429;SDS011;42332;52.136;20.666;2024-01-30T08:11:55;21.88;;;6.65;;
56429;SDS011;42332;52.136;20.666;2024-01-30T08:14:21;21.75;;;6.05;;
56429;SDS011;42332;52.136;20.666;2024-01-30T08:16:46;20.85;;;6.88;;
56429;SDS011;42332;52.136;20.666;2024-01-30T08:19:11;19.98;;;7.38;;
56429;SDS011;42332;52.136;20.666;2024-01-30T08:21:37;21.20;;;8.13;;
56429;SDS011;42332;52.136;20.666;2024-01-30T08:24:03;22.45;;;7.13;;
56429;SDS011;42332;52.136;20.666;2024-01-30T08:26:29;17.70;;;6.35;;
56429;SDS011;42332;52.136;20.666;2024-01-30T08:28:54;19.88;;;7.78;;
56429;SDS011;42332;52.136;20.666;2024-01-30T08:31:20;22.55;;;7.10;;
56429;SDS011;42332;52.136;20.666;2024-01-30T08:33:45;11.82;;;5.40;;
56429;SDS011;42332;52.136;20.666;2024-01-30T08:36:10;16.23;;;6.50;;
56429;SDS011;42332;52.136;20.666;2024-01-30T08:38:36;15.85;;;6.68;;
56429;SDS011;42332;52.136;20.666;2024-01-30T08:41:01;17.48;;;7.20;;
56429;SDS011;42332;52.136;20.666;2024-01-30T08:43:26;17.15;;;7.68;;
56429;SDS011;42332;52.136;20.666;2024-01-30T08:45:52;29.58;;;7.00;;
56429;SDS011;42332;52.136;20.666;2024-01-30T08:48:17;23.55;;;7.25;;
56429;SDS011;42332;52.136;20.666;2024-01-30T08:50:42;18.48;;;7.53;;
56429;SDS011;42332;52.136;20.666;2024-01-30T08:53:08;15.10;;;5.82;;
56429;SDS011;42332;52.136;20.666;2024-01-30T08:55:33;16.80;;;6.05;;
56429;SDS011;42332;52.136;20.666;2024-01-30T08:57:58;15.55;;;5.43;;
56429;SDS011;42332;52.136;20.666;2024-01-30T09:00:24;14.20;;;5.45;;
56429;SDS011;42332;52.136;20.666;2024-01-30T09:02:49;19.90;;;7.53;;
56429;SDS011;42332;52.136;20.666;2024-01-30T09:05:15;16.85;;;5.90;;
56429;SDS011;42332;52.136;20.666;2024-01-30T09:07:40;15.95;;;6.13;;
56429;SDS011;42332;52.136;20.666;2024-01-30T09:10:06;15.85;;;6.53;;
56429;SDS011;42332;52.136;20.666;2024-01-30T09:12:31;17.45;;;6.00;;
56429;SDS011;42332;52.136;20.666;2024-01-30T09:14:57;18.23;;;6.38;;
56429;SDS011;42332;52.136;20.666;2024-01-30T09:17:22;17.45;;;7.07;;
56429;SDS011;42332;52.136;20.666;2024-01-30T09:19:47;25.00;;;6.85;;
56429;SDS011;42332;52.136;20.666;2024-01-30T09:22:13;17.00;;;6.72;;
56429;SDS011;42332;52.136;20.666;2024-01-30T09:24:38;20.23;;;5.88;;
56429;SDS011;42332;52.136;20.666;2024-01-30T09:27:04;14.38;;;5.22;;
56429;SDS011;42332;52.136;20.666;2024-01-30T09:29:29;17.90;;;6.38;;
56429;SDS011;42332;52.136;20.666;2024-01-30T09:31:54;19.95;;;7.50;;
56429;SDS011;42332;52.136;20.666;2024-01-30T09:34:20;21.38;;;8.30;;
56429;SDS011;42332;52.136;20.666;2024-01-30T09:36:45;15.05;;;6.20;;
56429;SDS011;42332;52.136;20.666;2024-01-30T09:39:11;16.30;;;5.88;;
56429;SDS011;42332;52.136;20.666;2024-01-30T09:41:39;19.30;;;7.05;;
56429;SDS011;42332;52.136;20.666;2024-01-30T09:44:10;14.10;;;5.75;;
56429;SDS011;42332;52.136;20.666;2024-01-30T09:46:36;10.65;;;4.47;;
56429;SDS011;42332;52.136;20.666;2024-01-30T09:49:02;20.85;;;7.05;;
56429;SDS011;42332;52.136;20.666;2024-01-30T09:51:28;19.20;;;7.22;;
56429;SDS011;42332;52.136;20.666;2024-01-30T09:53:54;16.58;;;6.72;;
56429;SDS011;42332;52.136;20.666;2024-01-30T09:56:20;20.48;;;6.13;;
56429;SDS011;42332;52.136;20.666;2024-01-30T09:58:45;22.00;;;7.32;;
56429;SDS011;42332;52.136;20.666;2024-01-30T10:01:11;20.98;;;7.43;;
56429;SDS011;42332;52.136;20.666;2024-01-30T10:03:36;17.98;;;7.28;;
56429;SDS011;42332;52.136;20.666;2024-01-30T10:06:02;17.25;;;5.90;;
56429;SDS011;42332;52.136;20.666;2024-01-30T10:08:27;19.38;;;6.65;;
56429;SDS011;42332;52.136;20.666;2024-01-30T10:10:54;16.88;;;6.50;;
56429;SDS011;42332;52.136;20.666;2024-01-30T10:13:20;17.33;;;7.18;;
56429;SDS011;42332;52.136;20.666;2024-01-30T10:15:45;8.38;;;3.90;;
56429;SDS011;42332;52.136;20.666;2024-01-30T10:18:10;13.32;;;5.07;;
56429;SDS011;42332;52.136;20.666;2024-01-30T10:20:36;14.35;;;5.32;;
56429;SDS011;42332;52.136;20.666;2024-01-30T10:23:02;21.55;;;7.45;;
56429;SDS011;42332;52.136;20.666;2024-01-30T10:25:28;18.25;;;7.68;;
56429;SDS011;42332;52.136;20.666;2024-01-30T10:27:54;17.83;;;7.03;;
56429;SDS011;42332;52.136;20.666;2024-01-30T10:30:22;24.67;;;7.88;;
56429;SDS011;42332;52.136;20.666;2024-01-30T10:32:48;27.17;;;8.48;;
56429;SDS011;42332;52.136;20.666;2024-01-30T10:35:13;19.42;;;7.47;;
56429;SDS011;42332;52.136;20.666;2024-01-30T10:37:39;15.98;;;5.95;;
56429;SDS011;42332;52.136;20.666;2024-01-30T10:40:05;23.08;;;7.35;;
56429;SDS011;42332;52.136;20.666;2024-01-30T10:42:31;19.15;;;6.55;;
56429;SDS011;42332;52.136;20.666;2024-01-30T10:45:07;21.02;;;6.93;;
56429;SDS011;42332;52.136;20.666;2024-01-30T10:47:41;17.38;;;6.57;;
56429;SDS011;42332;52.136;20.666;2024-01-30T10:50:09;17.90;;;7.47;;
56429;SDS011;42332;52.136;20.666;2024-01-30T10:52:35;19.88;;;7.13;;
56429;SDS011;42332;52.136;20.666;2024-01-30T10:55:01;18.83;;;7.22;;
56429;SDS011;42332;52.136;20.666;2024-01-30T10:57:30;18.08;;;6.35;;
56429;SDS011;42332;52.136;20.666;2024-01-30T11:00:02;20.95;;;6.68;;
56429;SDS011;42332;52.136;20.666;2024-01-30T11:02:35;22.60;;;7.43;;
56429;SDS011;42332;52.136;20.666;2024-01-30T11:05:04;19.98;;;7.25;;
56429;SDS011;42332;52.136;20.666;2024-01-30T11:07:29;17.05;;;6.93;;
56429;SDS011;42332;52.136;20.666;2024-01-30T11:12:23;21.08;;;7.45;;
56429;SDS011;42332;52.136;20.666;2024-01-30T11:14:50;21.15;;;8.70;;
56429;SDS011;42332;52.136;20.666;2024-01-30T11:17:27;21.48;;;6.95;;
56429;SDS011;42332;52.136;20.666;2024-01-30T11:19:53;19.98;;;7.50;;
56429;SDS011;42332;52.136;20.666;2024-01-30T11:22:20;22.08;;;7.30;;
56429;SDS011;42332;52.136;20.666;2024-01-30T11:24:45;27.13;;;8.02;;
56429;SDS011;42332;52.136;20.666;2024-01-30T11:27:12;21.08;;;7.18;;
56429;SDS011;42332;52.136;20.666;2024-01-30T11:29:38;22.60;;;7.72;;
56429;SDS011;42332;52.136;20.666;2024-01-30T11:32:05;19.83;;;7.43;;
56429;SDS011;42332;52.136;20.666;2024-01-30T11:34:30;21.15;;;7.25;;
56429;SDS011;42332;52.136;20.666;2024-01-30T11:36:59;15.00;;;6.45;;
56429;SDS011;42332;52.136;20.666;2024-01-30T11:39:25;17.80;;;7.18;;
56429;SDS011;42332;52.136;20.666;2024-01-30T11:41:54;20.30;;;7.93;;
56429;SDS011;42332;52.136;20.666;2024-01-30T11:44:19;17.10;;;6.65;;
56429;SDS011;42332;52.136;20.666;2024-01-30T11:46:46;20.70;;;7.75;;
56429;SDS011;42332;52.136;20.666;2024-01-30T11:49:12;17.88;;;6.80;;
56429;SDS011;42332;52.136;20.666;2024-01-30T11:51:38;22.73;;;7.07;;
56429;SDS011;42332;52.136;20.666;2024-01-30T11:54:03;20.63;;;7.35;;
56429;SDS011;42332;52.136;20.666;2024-01-30T11:56:28;17.65;;;7.40;;
56429;SDS011;42332;52.136;20.666;2024-01-30T11:58:54;15.35;;;6.00;;
56429;SDS011;42332;52.136;20.666;2024-01-30T12:01:20;20.55;;;7.93;;
56429;SDS011;42332;52.136;20.666;2024-01-30T12:03:51;16.73;;;5.80;;
56429;SDS011;42332;52.136;20.666;2024-01-30T12:06:16;18.25;;;7.18;;
56429;SDS011;42332;52.136;20.666;2024-01-30T12:08:42;18.55;;;6.43;;
56429;SDS011;42332;52.136;20.666;2024-01-30T12:11:07;20.30;;;7.28;;
56429;SDS011;42332;52.136;20.666;2024-01-30T12:13:33;19.52;;;7.47;;
56429;SDS011;42332;52.136;20.666;2024-01-30T12:15:59;23.63;;;7.13;;
56429;SDS011;42332;52.136;20.666;2024-01-30T12:18:27;22.52;;;7.07;;
56429;SDS011;42332;52.136;20.666;2024-01-30T12:20:56;14.77;;;6.35;;
56429;SDS011;42332;52.136;20.666;2024-01-30T12:23:24;19.05;;;6.93;;
56429;SDS011;42332;52.136;20.666;2024-01-30T12:25:51;19.50;;;7.20;;
56429;SDS011;42332;52.136;20.666;2024-01-30T12:28:16;24.85;;;8.55;;
56429;SDS011;42332;52.136;20.666;2024-01-30T12:30:42;21.30;;;7.72;;
56429;SDS011;42332;52.136;20.666;2024-01-30T12:33:07;24.40;;;7.22;;
56429;SDS011;42332;52.136;20.666;2024-01-30T12:35:34;26.92;;;8.15;;
56429;SDS011;42332;52.136;20.666;2024-01-30T12:38:00;20.38;;;8.27;;
56429;SDS011;42332;52.136;20.666;2024-01-30T12:40:25;20.60;;;8.40;;
56429;SDS011;42332;52.136;20.666;2024-01-30T12:42:51;23.95;;;7.65;;
56429;SDS011;42332;52.136;20.666;2024-01-30T12:45:17;22.58;;;8.07;;
56429;SDS011;42332;52.136;20.666;2024-01-30T12:47:46;27.83;;;8.80;;
56429;SDS011;42332;52.136;20.666;2024-01-30T12:50:11;19.00;;;7.68;;
56429;SDS011;42332;52.136;20.666;2024-01-30T12:52:40;19.10;;;7.88;;
56429;SDS011;42332;52.136;20.666;2024-01-30T12:55:06;24.08;;;8.40;;
56429;SDS011;42332;52.136;20.666;2024-01-30T12:57:31;15.07;;;6.68;;
56429;SDS011;42332;52.136;20.666;2024-01-30T12:59:56;24.13;;;6.82;;
56429;SDS011;42332;52.136;20.666;2024-01-30T13:02:22;13.05;;;5.53;;
56429;SDS011;42332;52.136;20.666;2024-01-30T13:04:47;20.10;;;7.47;;
56429;SDS011;42332;52.136;20.666;2024-01-30T13:07:13;23.98;;;7.15;;
56429;SDS011;42332;52.136;20.666;2024-01-30T13:09:38;25.02;;;8.45;;
56429;SDS011;42332;52.136;20.666;2024-01-30T13:12:03;21.80;;;8.40;;
56429;SDS011;42332;52.136;20.666;2024-01-30T13:14:29;39.50;;;10.55;;
56429;SDS011;42332;52.136;20.666;2024-01-30T13:16:54;27.52;;;9.20;;
56429;SDS011;42332;52.136;20.666;2024-01-30T13:19:20;23.23;;;7.97;;
56429;SDS011;42332;52.136;20.666;2024-01-30T13:21:45;25.35;;;8.65;;
56429;SDS011;42332;52.136;20.666;2024-01-30T13:24:11;22.15;;;8.45;;
56429;SDS011;42332;52.136;20.666;2024-01-30T13:26:36;23.65;;;7.30;;
56429;SDS011;42332;52.136;20.666;2024-01-30T13:29:02;24.73;;;8.95;;
56429;SDS011;42332;52.136;20.666;2024-01-30T13:31:27;18.45;;;7.28;;
56429;SDS011;42332;52.136;20.666;2024-01-30T13:33:53;21.92;;;7.15;;
56429;SDS011;42332;52.136;20.666;2024-01-30T13:36:19;18.70;;;7.07;;
56429;SDS011;42332;52.136;20.666;2024-01-30T13:38:44;13.85;;;6.35;;
56429;SDS011;42332;52.136;20.666;2024-01-30T13:41:10;20.00;;;7.40;;
56429;SDS011;42332;52.136;20.666;2024-01-30T13:43:35;20.75;;;8.13;;
56429;SDS011;42332;52.136;20.666;2024-01-30T13:46:00;17.33;;;7.50;;
56429;SDS011;42332;52.136;20.666;2024-01-30T13:48:25;20.95;;;7.57;;
56429;SDS011;42332;52.136;20.666;2024-01-30T13:50:51;21.85;;;8.85;;
56429;SDS011;42332;52.136;20.666;2024-01-30T13:53:17;24.23;;;8.90;;
56429;SDS011;42332;52.136;20.666;2024-01-30T13:55:43;30.13;;;11.20;;
56429;SDS011;42332;52.136;20.666;2024-01-30T13:58:08;48.08;;;15.10;;
56429;SDS011;42332;52.136;20.666;2024-01-30T14:00:33;43.90;;;12.57;;
56429;SDS011;42332;52.136;20.666;2024-01-30T14:02:59;34.63;;;11.52;;
56429;SDS011;42332;52.136;20.666;2024-01-30T14:05:25;30.27;;;10.57;;
56429;SDS011;42332;52.136;20.666;2024-01-30T14:07:51;21.10;;;8.48;;
56429;SDS011;42332;52.136;20.666;2024-01-30T14:10:17;22.48;;;8.07;;
56429;SDS011;42332;52.136;20.666;2024-01-30T14:12:42;27.25;;;8.23;;
56429;SDS011;42332;52.136;20.666;2024-01-30T14:15:09;23.90;;;8.38;;